RJCC/CTS METAR and TAF weather

Enter ICAO airport designator
Station Type Date Time Source
RJCC METAR 2019/02/23 00:30 UTC NOAA

RJCC 230030Z 32007KT 1800 R01L/1500VP2000D R01R/1900D -SHSN FEW008 SCT015 BKN030 M03/M05 Q1015 RMK 1ST008 4ST015 6CU030 A2997


Station Type Date Time Source
RJCC Decoded METAR 2019/02/23 00:30 UTC NOAA

Chitose Ab, Japan (RJCC) 42-48N 141-40E 30M
Feb 22, 2019 - 07:30 PM EST / 2019.02.23 0030 UTC
Wind: from the NW (320 degrees) at 8 MPH (7 KT):0
Visibility: 1 mile(s):0
Sky conditions: mostly cloudy
Weather: light snow showers
Temperature: 26 F (-3 C)
Windchill: 17 F (-8 C):1
Dew Point: 23 F (-5 C)
Relative Humidity: 86%
Pressure (altimeter): 29.97 in. Hg (1015 hPa)
ob: RJCC 230030Z 32007KT 1800 R01L/1500VP2000D R01R/1900D -SHSN FEW008 SCT015 BKN030 M03/M05 Q1015 RMK 1ST008 4ST015 6CU030 A2997
cycle: 0

Station Type Date Time Source
RJCC TAF 2019/02/22 22:58 UTC NOAA

TAF
AMD RJCC 222254Z 2222/2400 18003KT 9999 FEW008 BKN020
BECMG 2223/2301 33016KT
TEMPO 2223/2301 0700 SHSN VV005
TEMPO 2301/2306 3000 -SHSN
BECMG 2312/2315 16006KT


Example: see airport list